^^
Grace C. Lehan Memorial Weather Station Historical Data
Daily Summary for June 25, 2022 Units:  Metric    English   Both
Daily Weekly Monthly Yearly
  High: Low: Average:
Temperature: 32.9 °C 17.6 °C 25.9 °C
Dew Point: 20.2 °C 16.3 °C 18.2 °C
Humidity: 95% 38.9% 66%
Wind Speed: 4.8km/h 0km/h 0.3km/h
Wind Gust: 12.9km/h - -
Wind- - SW
Pressure: 1018.2 hPa 1015.5 hPa -
Precipitation: 0 mm    
 
 
Tabular Data for June 25, 2022
Time Temperature Dew Point Pressure Wind Wind Speed Wind Gust Humidity Rainfall Rate (Hourly) solar
00:09 21.3 °C 18.9 °C 1015.8 hPa Calm     86% 0 mm 0 W/m2
00:14 21.2 °C 18.8 °C 1015.8 hPa Calm     86% 0 mm 0 W/m2
00:19 21.2 °C 18.8 °C 1015.8 hPa Calm     86.3% 0 mm 0 W/m2
00:24 21.1 °C 18.7 °C 1015.8 hPa Calm     86% 0 mm 0 W/m2
00:29 21 °C 18.8 °C 1015.8 hPa Calm     87% 0 mm 0 W/m2
00:34 20.9 °C 18.7 °C 1015.8 hPa Calm     87% 0 mm 0 W/m2
00:39 20.8 °C 18.6 °C 1015.8 hPa Calm     87% 0 mm 0 W/m2
00:44 20.8 °C 18.7 °C 1015.8 hPa Calm     87.8% 0 mm 0 W/m2
00:49 20.7 °C 18.7 °C 1015.8 hPa Calm     88% 0 mm 0 W/m2
00:54 20.7 °C 18.6 °C 1015.8 hPa Calm     88% 0 mm 0 W/m2
00:59 20.7 °C 18.6 °C 1015.8 hPa Calm     88% 0 mm 0 W/m2
01:04 20.7 °C 18.8 °C 1015.8 hPa Calm     89% 0 mm 0 W/m2
01:09 20.6 °C 18.7 °C 1015.8 hPa Calm     89% 0 mm 0 W/m2
01:14 20.6 °C 18.7 °C 1015.8 hPa Calm     89% 0 mm 0 W/m2
01:19 20.5 °C 18.6 °C 1015.8 hPa Calm     89% 0 mm 0 W/m2
01:24 20.4 °C 18.6 °C 1015.8 hPa Calm     89% 0 mm 0 W/m2
01:29 20.4 °C 18.5 °C 1015.8 hPa Calm     89% 0 mm 0 W/m2
01:34 20.3 °C 18.4 °C 1015.8 hPa Calm     89% 0 mm 0 W/m2
01:39 20.2 °C 18.4 °C 1015.8 hPa Calm     89% 0 mm 0 W/m2
01:44 20.2 °C 18.3 °C 1015.8 hPa Calm     89.1% 0 mm 0 W/m2
01:49 20.1 °C 18.3 °C 1015.8 hPa Calm     89.7% 0 mm 0 W/m2
01:54 20.1 °C 18.3 °C 1015.8 hPa Calm     90% 0 mm 0 W/m2
01:59 20 °C 18.3 °C 1015.8 hPa Calm     90% 0 mm 0 W/m2
02:04 19.9 °C 18.3 °C 1015.8 hPa Calm     90% 0 mm 0 W/m2
02:09 19.9 °C 18.2 °C 1015.8 hPa Calm     90% 0 mm 0 W/m2
02:14 19.9 °C 18.3 °C 1015.8 hPa Calm     90.7% 0 mm 0 W/m2
02:19 19.8 °C 18.3 °C 1015.5 hPa Calm     91% 0 mm 0 W/m2
02:24 19.8 °C 18.3 °C 1015.5 hPa Calm     91% 0 mm 0 W/m2
02:29 19.7 °C 18.2 °C 1015.5 hPa Calm     91% 0 mm 0 W/m2
02:34 19.7 °C 18.2 °C 1015.5 hPa Calm     91% 0 mm 0 W/m2
02:39 19.7 °C 18.2 °C 1015.5 hPa Calm     91% 0 mm 0 W/m2
02:44 19.6 °C 18.1 °C 1015.5 hPa Calm     91% 0 mm 0 W/m2
02:49 19.6 °C 18.1 °C 1015.5 hPa Calm     91% 0 mm 0 W/m2
02:54 19.5 °C 18 °C 1015.5 hPa Calm     91% 0 mm 0 W/m2
02:59 19.4 °C 18 °C 1015.5 hPa Calm     91.5% 0 mm 0 W/m2
03:04 19.4 °C 17.9 °C 1015.5 hPa Calm     91% 0 mm 0 W/m2
03:09 19.3 °C 17.9 °C 1015.8 hPa Calm     91.7% 0 mm 0 W/m2
03:14 19.3 °C 17.9 °C 1015.8 hPa Calm     92% 0 mm 0 W/m2
03:19 19.2 °C 17.9 °C 1015.5 hPa Calm     92% 0 mm 0 W/m2
03:24 19.2 °C 17.8 °C 1015.8 hPa Calm     92% 0 mm 0 W/m2
03:29 19.1 °C 17.7 °C 1015.8 hPa Calm     92% 0 mm 0 W/m2
03:34 19 °C 17.7 °C 1015.8 hPa Calm     92% 0 mm 0 W/m2
03:39 18.9 °C 17.6 °C 1015.8 hPa Calm     92% 0 mm 0 W/m2
03:44 18.8 °C 17.6 °C 1015.8 hPa Calm     92% 0 mm 0 W/m2
03:49 18.8 °C 17.4 °C 1015.8 hPa Calm     92% 0 mm 0 W/m2
03:54 18.7 °C 17.4 °C 1016.1 hPa Calm     92% 0 mm 0 W/m2
03:59 18.7 °C 17.3 °C 1016.1 hPa Calm     92% 0 mm 0 W/m2
04:00 18.6 °C 17.3 °C 1016.1 hPa Calm     92% 0 mm 0 W/m2
04:09 18.6 °C 17.2 °C 1016.1 hPa Calm     92% 0 mm 0 W/m2
04:14 18.6 °C 17.2 °C 1016.1 hPa Calm     92% 0 mm 0 W/m2
04:19 18.5 °C 17.2 °C 1016.1 hPa Calm     92% 0 mm 0 W/m2
04:24 18.4 °C 17.1 °C 1016.1 hPa Calm     92% 0 mm 0 W/m2
04:29 18.3 °C 17 °C 1016.5 hPa Calm     92% 0 mm 0 W/m2
04:34 18.2 °C 16.9 °C 1016.5 hPa Calm     92% 0 mm 0 W/m2
04:39 18.2 °C 16.8 °C 1016.5 hPa Calm     92% 0 mm 0 W/m2
04:44 18.1 °C 16.9 °C 1016.5 hPa Calm     92.7% 0 mm 0 W/m2
04:49 18.1 °C 16.9 °C 1016.8 hPa Calm     93% 0 mm 0 W/m2
04:54 18 °C 16.9 °C 1016.8 hPa Calm     93% 0 mm 0 W/m2
04:59 17.9 °C 16.8 °C 1016.8 hPa Calm     93% 0 mm 0 W/m2
05:04 17.9 °C 16.8 °C 1016.8 hPa Calm     93% 0 mm 0 W/m2
05:09 17.9 °C 16.7 °C 1016.8 hPa Calm     93% 0 mm 0 W/m2
05:14 17.9 °C 16.7 °C 1016.8 hPa Calm     93% 0 mm 0 W/m2
05:19 17.9 °C 16.7 °C 1016.8 hPa Calm     93% 0 mm 0 W/m2
05:24 17.8 °C 16.7 °C 1016.8 hPa Calm     93% 0 mm 5 W/m2
05:29 17.8 °C 16.7 °C 1017.2 hPa Calm     93% 0 mm 7 W/m2
05:34 17.8 °C 16.6 °C 1017.2 hPa Calm     93% 0 mm 9 W/m2
05:39 17.7 °C 16.6 °C 1017.2 hPa Calm     93% 0 mm 12 W/m2
05:44 17.7 °C 16.6 °C 1017.5 hPa Calm     93.3% 0 mm 14 W/m2
05:49 17.7 °C 16.6 °C 1017.5 hPa Calm     93% 0 mm 18 W/m2
05:54 17.7 °C 16.6 °C 1017.5 hPa Calm     93% 0 mm 21 W/m2
05:59 17.7 °C 16.5 °C 1017.5 hPa Calm     93% 0 mm 25 W/m2
06:04 17.6 °C 16.6 °C 1017.5 hPa Calm     93.7% 0 mm 25 W/m2
06:09 17.7 °C 16.7 °C 1017.5 hPa Calm     94% 0 mm 25 W/m2
06:14 17.7 °C 16.7 °C 1017.5 hPa Calm     94% 0 mm 39 W/m2
06:19 17.7 °C 16.8 °C 1017.8 hPa Calm     94% 0 mm 39 W/m2
06:24 17.8 °C 16.8 °C 1017.8 hPa Calm     94% 0 mm 30 W/m2
06:29 17.9 °C 16.9 °C 1017.8 hPa Calm     94% 0 mm 40 W/m2
06:34 18.1 °C 17.1 °C 1017.8 hPa Calm     94% 0 mm 51 W/m2
06:39 18.2 °C 17.3 °C 1017.8 hPa Calm     94.5% 0 mm 116 W/m2
06:44 18.3 °C 17.6 °C 1017.8 hPa Calm     95% 0 mm 185 W/m2
06:49 18.6 °C 17.8 °C 1017.8 hPa Calm     95% 0 mm 214 W/m2
06:54 19 °C 18.2 °C 1017.8 hPa Calm     95% 0 mm 234 W/m2
06:59 19.3 °C 18.4 °C 1017.8 hPa Calm     95% 0 mm 246 W/m2
07:04 19.7 °C 18.8 °C 1017.8 hPa Calm   3.2 km/h 94.8% 0 mm 262 W/m2
07:09 20.1 °C 19 °C 1017.8 hPa Calm   3.2 km/h 93.3% 0 mm 285 W/m2
07:14 20.5 °C 18.8 °C 1017.8 hPa Calm   3.2 km/h 90.1% 0 mm 304 W/m2
07:19 21 °C 18.8 °C 1017.8 hPa Calm   3.2 km/h 87.3% 0 mm 325 W/m2
07:24 21.5 °C 18.8 °C 1017.8 hPa Calm   3.2 km/h 84.7% 0 mm 341 W/m2
07:29 22 °C 19 °C 1017.8 hPa Calm   3.2 km/h 82.9% 0 mm 359 W/m2
07:34 22.4 °C 18.8 °C 1017.8 hPa Calm   3.2 km/h 79.9% 0 mm 374 W/m2
07:39 22.8 °C 18.9 °C 1017.8 hPa North 0.5 km/h 6.4 km/h 78.6% 0 mm 392 W/m2
07:44 23.1 °C 18.5 °C 1017.8 hPa NE 0.3 km/h 6.4 km/h 75.5% 0 mm 410 W/m2
07:49 23.3 °C 18.8 °C 1017.8 hPa Calm   6.4 km/h 75.7% 0 mm 425 W/m2
07:54 23.7 °C 18.9 °C 1017.8 hPa NE 0.2 km/h 6.4 km/h 74.5% 0 mm 439 W/m2
07:59 24 °C 18.9 °C 1018.2 hPa NE 0.2 km/h 6.4 km/h 73.2% 0 mm 459 W/m2
08:09 24.6 °C 19.2 °C 1018.2 hPa NE 0.5 km/h 8 km/h 71.5% 0 mm 487 W/m2
08:14 24.9 °C 19.4 °C 1018.2 hPa NE 0.3 km/h 8 km/h 71.7% 0 mm 503 W/m2
08:19 25.1 °C 19.3 °C 1018.2 hPa NNE 0.3 km/h 8 km/h 70.2% 0 mm 519 W/m2
08:24 25.3 °C 19.6 °C 1018.2 hPa Calm   8 km/h 70.4% 0 mm 534 W/m2
08:29 25.5 °C 19.3 °C 1018.2 hPa North 0.5 km/h 8 km/h 68.8% 0 mm 550 W/m2
08:34 25.7 °C 19.3 °C 1018.2 hPa Calm   8 km/h 68% 0 mm 566 W/m2
08:39 25.8 °C 19.1 °C 1018.2 hPa NW 1.3 km/h 8 km/h 66.5% 0 mm 578 W/m2
08:44 25.9 °C 18.8 °C 1018.2 hPa NW 1.3 km/h 8 km/h 65% 0 mm 589 W/m2
08:49 26.1 °C 18.8 °C 1018.2 hPa NW 0.5 km/h 8 km/h 64.5% 0 mm 603 W/m2
08:54 26.2 °C 19.2 °C 1018.2 hPa NW 0.5 km/h 8 km/h 65.3% 0 mm 624 W/m2
08:59 26.4 °C 19.2 °C 1018.2 hPa NW 0.2 km/h 8 km/h 64.5% 0 mm 640 W/m2
09:04 26.6 °C 19.4 °C 1018.2 hPa Calm   8 km/h 64.8% 0 mm 652 W/m2
09:09 26.8 °C 19.5 °C 1018.2 hPa Calm     64.2% 0 mm 664 W/m2
09:14 26.8 °C 19.2 °C 1018.2 hPa Calm     63.1% 0 mm 679 W/m2
09:19 26.8 °C 19.2 °C 1018.2 hPa Calm     63% 0 mm 693 W/m2
09:24 27 °C 19.7 °C 1018.2 hPa NW 0.5 km/h 4.8 km/h 64.1% 0 mm 703 W/m2
09:29 27.3 °C 19.9 °C 1018.2 hPa NW 0.6 km/h 6.4 km/h 63.8% 0 mm 715 W/m2
09:34 27.6 °C 20 °C 1018.2 hPa Calm   6.4 km/h 63.2% 0 mm 731 W/m2
09:39 27.9 °C 20 °C 1018.2 hPa NW 0.8 km/h 4.8 km/h 62.3% 0 mm 744 W/m2
09:44 28.1 °C 19.9 °C 1018.2 hPa Calm   4.8 km/h 61.1% 0 mm 758 W/m2
09:49 28.3 °C 20.2 °C 1018.2 hPa Calm   4.8 km/h 61.4% 0 mm 768 W/m2
09:54 28.4 °C 19.7 °C 1018.2 hPa Calm   4.8 km/h 59.2% 0 mm 779 W/m2
09:59 28.6 °C 20 °C 1018.2 hPa Calm   4.8 km/h 59.6% 0 mm 791 W/m2
10:04 28.9 °C 20.1 °C 1017.8 hPa NW 0.3 km/h 4.8 km/h 59% 0 mm 802 W/m2
10:09 28.9 °C 19.8 °C 1017.8 hPa Calm   4.8 km/h 58% 0 mm 812 W/m2
10:13 28.9 °C 19.5 °C 1017.8 hPa Calm   4.8 km/h 56.9% 0 mm 819 W/m2
10:30 29.1 °C 19.7 °C 1017.8 hPa Calm   4.8 km/h 57% 0 mm 823 W/m2
11:00 30.6 °C 19.9 °C 1017.8 hPa Calm   4.8 km/h 53% 0 mm 878 W/m2
11:30 30.9 °C 18.6 °C 1017.8 hPa Calm   9.7 km/h 48% 0 mm 923 W/m2
12:04 31.2 °C 18.9 °C 1017.8 hPa NW 4.5 km/h 9.7 km/h 48% 0 mm 965 W/m2
12:09 31.2 °C 18.7 °C 1017.8 hPa WNW 2.6 km/h 11.3 km/h 47.3% 0 mm 969 W/m2
12:14 31.1 °C 18.9 °C 1017.8 hPa WNW 0.3 km/h 11.3 km/h 48.4% 0 mm 977 W/m2
12:19 31.1 °C 19.2 °C 1017.8 hPa NW 1.8 km/h 11.3 km/h 49.2% 0 mm 977 W/m2
12:24 31 °C 19 °C 1017.8 hPa NW 0.2 km/h 11.3 km/h 48.9% 0 mm 976 W/m2
12:29 30.9 °C 19.1 °C 1017.8 hPa NW 0.8 km/h 11.3 km/h 49.3% 0 mm 981 W/m2
12:34 31 °C 19 °C 1017.8 hPa WNW 0.3 km/h 11.3 km/h 48.9% 0 mm 979 W/m2
12:39 31.1 °C 20 °C 1017.8 hPa WNW 0.8 km/h 11.3 km/h 51.8% 0 mm 981 W/m2
12:44 31.3 °C 19 °C 1017.8 hPa NW 1.9 km/h 12.9 km/h 48.1% 0 mm 984 W/m2
12:49 31.3 °C 18.7 °C 1017.8 hPa North 0.6 km/h 12.9 km/h 47% 0 mm 986 W/m2
12:54 31.4 °C 19.1 °C 1017.8 hPa NNE 0.3 km/h 12.9 km/h 48.1% 0 mm 986 W/m2
12:59 31.4 °C 18.9 °C 1017.8 hPa ENE 1.6 km/h 12.9 km/h 47.5% 0 mm 986 W/m2
13:04 31.4 °C 19.3 °C 1017.8 hPa NNE 0.8 km/h 12.9 km/h 48.6% 0 mm 981 W/m2
13:09 31.4 °C 19.4 °C 1017.8 hPa NNW 1.1 km/h 8 km/h 48.9% 0 mm 986 W/m2
13:14 31.5 °C 19.1 °C 1017.8 hPa Calm   8 km/h 47.8% 0 mm 983 W/m2
13:19 31.5 °C 19.3 °C 1017.8 hPa NNW 0.6 km/h 8 km/h 48.3% 0 mm 983 W/m2
13:24 31.6 °C 19.1 °C 1017.8 hPa NE 0.6 km/h 8 km/h 47.8% 0 mm 988 W/m2
13:29 31.6 °C 19.1 °C 1017.8 hPa NE 0.3 km/h 8 km/h 47.4% 0 mm 977 W/m2
13:34 31.7 °C 19.2 °C 1017.8 hPa North 1.8 km/h 9.7 km/h 47.6% 0 mm 983 W/m2
13:39 31.6 °C 18.7 °C 1017.8 hPa NW 1.8 km/h 11.3 km/h 46.4% 0 mm 974 W/m2
13:44 31.6 °C 18.6 °C 1017.8 hPa NNW 1.1 km/h 11.3 km/h 46.2% 0 mm 974 W/m2
13:49 31.4 °C 18.4 °C 1017.8 hPa Calm   11.3 km/h 45.9% 0 mm 970 W/m2
13:54 31.4 °C 17.8 °C 1017.8 hPa ENE 2.1 km/h 11.3 km/h 44.2% 0 mm 963 W/m2
13:59 31.5 °C 17.9 °C 1017.8 hPa East 3.2 km/h 11.3 km/h 44.5% 0 mm 958 W/m2
14:04 31.4 °C 18.5 °C 1017.8 hPa ENE 0.3 km/h 11.3 km/h 46.1% 0 mm 949 W/m2
14:09 31.6 °C 19.1 °C 1017.5 hPa NW 1.3 km/h 8 km/h 47.6% 0 mm 949 W/m2
14:14 31.7 °C 18.5 °C 1017.5 hPa NNE 0.8 km/h 8 km/h 45.5% 0 mm 942 W/m2
14:19 31.7 °C 18.4 °C 1017.5 hPa NE 0.2 km/h 8 km/h 45.4% 0 mm 937 W/m2
14:24 31.8 °C 18.5 °C 1017.5 hPa WNW 2.3 km/h 11.3 km/h 45.3% 0 mm 933 W/m2
14:29 31.8 °C 18.3 °C 1017.5 hPa WNW 0.3 km/h 11.3 km/h 44.5% 0 mm 932 W/m2
14:34 32 °C 18.7 °C 1017.5 hPa WNW 1.6 km/h 11.3 km/h 45.2% 0 mm 921 W/m2
14:39 32.1 °C 18.3 °C 1017.2 hPa WNW 2.9 km/h 9.7 km/h 44.1% 0 mm 916 W/m2
14:44 32.2 °C 19.1 °C 1017.2 hPa West 1.9 km/h 9.7 km/h 46% 0 mm 911 W/m2
14:49 32.3 °C 18.4 °C 1017.2 hPa West 4.3 km/h 11.3 km/h 43.9% 0 mm 900 W/m2
14:54 32.3 °C 18.8 °C 1016.8 hPa West 0.2 km/h 11.3 km/h 45.1% 0 mm 891 W/m2
14:59 32.3 °C 18.9 °C 1016.8 hPa WNW 4 km/h 11.3 km/h 45% 0 mm 884 W/m2
15:04 32.3 °C 18.6 °C 1016.8 hPa WNW 0.5 km/h 11.3 km/h 44.1% 0 mm 875 W/m2
15:09 32.4 °C 17.9 °C 1016.8 hPa WNW 0.2 km/h 3.2 km/h 42.1% 0 mm 867 W/m2
15:14 32.6 °C 17.9 °C 1016.8 hPa NNE 1.9 km/h 9.7 km/h 41.7% 0 mm 858 W/m2
15:19 32.6 °C 17.5 °C 1016.8 hPa NE 2.7 km/h 9.7 km/h 40.6% 0 mm 849 W/m2
15:24 32.6 °C 17.2 °C 1016.8 hPa ENE 2.4 km/h 9.7 km/h 39.9% 0 mm 835 W/m2
15:29 32.6 °C 17.2 °C 1016.8 hPa Calm   9.7 km/h 39.8% 0 mm 823 W/m2
15:34 32.6 °C 17.3 °C 1016.8 hPa Calm   9.7 km/h 40% 0 mm 810 W/m2
15:39 32.6 °C 17.6 °C 1016.8 hPa Calm     40.9% 0 mm 802 W/m2
15:44 32.6 °C 17.1 °C 1016.5 hPa Calm     39.5% 0 mm 793 W/m2
15:49 32.7 °C 16.9 °C 1016.5 hPa Calm   1.6 km/h 39% 0 mm 780 W/m2
15:54 32.7 °C 16.9 °C 1016.5 hPa ENE 0.2 km/h 3.2 km/h 39.2% 0 mm 772 W/m2
15:59 32.7 °C 17.9 °C 1016.5 hPa ENE 0.5 km/h 3.2 km/h 41.6% 0 mm 759 W/m2
16:04 32.8 °C 17.4 °C 1016.5 hPa ENE 4.8 km/h 4.8 km/h 40% 0 mm 733 W/m2
16:09 32.9 °C 18.2 °C 1016.5 hPa ENE 0.6 km/h 4.8 km/h 41.7% 0 mm 733 W/m2
16:14 32.9 °C 18.2 °C 1016.5 hPa NE 0.3 km/h 4.8 km/h 41.5% 0 mm 721 W/m2
16:19 32.9 °C 17.2 °C 1016.5 hPa NE 0.2 km/h 4.8 km/h 39.2% 0 mm 714 W/m2
16:24 32.8 °C 17.7 °C 1016.5 hPa Calm   4.8 km/h 40.7% 0 mm 56 W/m2
16:29 32.7 °C 17.3 °C 1016.5 hPa Calm   4.8 km/h 39.8% 0 mm 56 W/m2
16:34 32.7 °C 17.1 °C 1016.5 hPa Calm   4.8 km/h 39.5% 0 mm 56 W/m2
16:39 32.5 °C 16.8 °C 1016.8 hPa Calm     39.1% 0 mm 54 W/m2
16:44 32.2 °C 16.5 °C 1016.8 hPa Calm     38.9% 0 mm 54 W/m2
16:49 31.9 °C 16.3 °C 1016.8 hPa Calm     39.1% 0 mm 53 W/m2
16:54 31.8 °C 16.8 °C 1016.8 hPa Calm     40.8% 0 mm 53 W/m2
16:59 31.7 °C 17.7 °C 1016.8 hPa NW 0.8 km/h 8 km/h 43.4% 0 mm 51 W/m2
17:04 31.7 °C 17.9 °C 1016.8 hPa WNW 2.3 km/h 8 km/h 43.8% 0 mm 51 W/m2
17:09 31.8 °C 17.6 °C 1016.5 hPa West 2.1 km/h 9.7 km/h 42.8% 0 mm 49 W/m2
17:14 31.8 °C 17.4 °C 1016.5 hPa West 0.3 km/h 9.7 km/h 42.2% 0 mm 49 W/m2
17:19 31.8 °C 17.6 °C 1016.8 hPa West 2.3 km/h 11.3 km/h 42.7% 0 mm 49 W/m2
17:24 31.8 °C 17.1 °C 1016.8 hPa West 1.9 km/h 11.3 km/h 41.5% 0 mm 47 W/m2
17:29 31.7 °C 16.6 °C 1016.5 hPa West 1.9 km/h 11.3 km/h 40.1% 0 mm 47 W/m2
17:34 31.7 °C 16.9 °C 1016.8 hPa WNW 1.8 km/h 11.3 km/h 41.1% 0 mm 46 W/m2
17:39 31.7 °C 17.1 °C 1016.5 hPa WNW 0.6 km/h 9.7 km/h 41.5% 0 mm 46 W/m2
17:44 31.7 °C 17.1 °C 1016.5 hPa WNW 1 km/h 9.7 km/h 41.7% 0 mm 44 W/m2
17:49 31.6 °C 17 °C 1016.5 hPa WNW 0.3 km/h 9.7 km/h 41.6% 0 mm 44 W/m2
17:54 31.6 °C 17.2 °C 1016.5 hPa WNW 2.1 km/h 9.7 km/h 42.1% 0 mm 42 W/m2
17:59 31.6 °C 17.1 °C 1016.5 hPa WNW 0.6 km/h 9.7 km/h 41.9% 0 mm 42 W/m2
18:04 31.6 °C 17 °C 1016.5 hPa WNW 0.2 km/h 9.7 km/h 41.7% 0 mm 42 W/m2
18:09 31.5 °C 16.8 °C 1016.5 hPa WNW 0.2 km/h 3.2 km/h 41.4% 0 mm 40 W/m2
18:14 31.4 °C 16.8 °C 1016.5 hPa Calm   3.2 km/h 41.7% 0 mm 40 W/m2
18:19 31.4 °C 17.5 °C 1016.8 hPa Calm   3.2 km/h 43.5% 0 mm 40 W/m2
18:24 31.3 °C 17.3 °C 1016.5 hPa Calm   3.2 km/h 43.2% 0 mm 39 W/m2
18:29 31.3 °C 16.9 °C 1016.5 hPa Calm   3.2 km/h 42.3% 0 mm 39 W/m2
18:34 31.2 °C 16.6 °C 1016.5 hPa Calm   3.2 km/h 41.5% 0 mm 37 W/m2
18:39 31.2 °C 17.1 °C 1016.5 hPa Calm     42.8% 0 mm 37 W/m2
18:44 31.2 °C 17.4 °C 1016.5 hPa Calm     43.8% 0 mm 37 W/m2
18:49 31.1 °C 17.4 °C 1016.5 hPa Calm     43.9% 0 mm 35 W/m2
18:54 31.1 °C 16.9 °C 1016.5 hPa Calm     42.8% 0 mm 33 W/m2
18:59 31 °C 16.6 °C 1016.5 hPa Calm     41.9% 0 mm 33 W/m2
19:04 30.9 °C 16.6 °C 1016.5 hPa Calm     42.2% 0 mm 32 W/m2
19:09 30.9 °C 16.8 °C 1016.5 hPa Calm     42.8% 0 mm 32 W/m2
19:14 30.9 °C 16.8 °C 1016.8 hPa Calm     43% 0 mm 30 W/m2
19:19 30.8 °C 16.9 °C 1016.8 hPa Calm     43.2% 0 mm 28 W/m2
19:24 30.7 °C 16.8 °C 1016.8 hPa Calm     43.3% 0 mm 28 W/m2
19:29 30.7 °C 17 °C 1016.5 hPa Calm     44% 0 mm 26 W/m2
19:34 30.6 °C 17.1 °C 1016.5 hPa Calm     44.6% 0 mm 25 W/m2
19:39 30.4 °C 17.2 °C 1016.8 hPa Calm     45% 0 mm 25 W/m2
19:44 30.3 °C 17.3 °C 1016.8 hPa Calm     45.7% 0 mm 23 W/m2
19:49 30.2 °C 17.9 °C 1016.8 hPa Calm     48% 0 mm 21 W/m2
19:54 30 °C 18.7 °C 1016.8 hPa Calm     50.5% 0 mm 18 W/m2
19:59 29.8 °C 19.2 °C 1016.8 hPa Calm     52.9% 0 mm 16 W/m2
20:04 29.6 °C 19.3 °C 1016.8 hPa Calm     54% 0 mm 11 W/m2
20:09 29.5 °C 19.5 °C 1016.8 hPa Calm     54.9% 0 mm 11 W/m2
20:14 29.3 °C 19.6 °C 1016.8 hPa Calm     55.9% 0 mm 9 W/m2
20:19 29.1 °C 19.4 °C 1016.8 hPa Calm     56% 0 mm 5 W/m2
20:24 28.9 °C 19.6 °C 1016.8 hPa Calm     57% 0 mm 0 W/m2
20:29 28.8 °C 19.4 °C 1016.8 hPa Calm     57% 0 mm 0 W/m2
20:34 28.6 °C 19.3 °C 1016.8 hPa Calm     57.3% 0 mm 0 W/m2
20:39 28.4 °C 19.3 °C 1016.8 hPa Calm     58% 0 mm 0 W/m2
20:44 28.2 °C 19.3 °C 1016.8 hPa Calm     58.4% 0 mm 0 W/m2
20:49 28.1 °C 19.3 °C 1017.2 hPa Calm     59% 0 mm 0 W/m2
20:54 27.9 °C 19.2 °C 1017.2 hPa Calm     59% 0 mm 0 W/m2
20:59 27.7 °C 19.2 °C 1017.2 hPa Calm     59.8% 0 mm 0 W/m2
21:04 27.6 °C 19.1 °C 1017.2 hPa Calm     59.8% 0 mm 0 W/m2
21:09 27.4 °C 18.9 °C 1017.2 hPa Calm     60% 0 mm 0 W/m2
21:14 27.3 °C 18.9 °C 1017.2 hPa Calm     60.4% 0 mm 0 W/m2
21:19 27.1 °C 18.8 °C 1017.2 hPa Calm     60.5% 0 mm 0 W/m2
21:24 26.9 °C 18.8 °C 1017.5 hPa Calm     61% 0 mm 0 W/m2
21:29 26.8 °C 18.8 °C 1017.5 hPa Calm     61.5% 0 mm 0 W/m2
21:34 26.7 °C 18.7 °C 1017.5 hPa Calm     61.8% 0 mm 0 W/m2
21:39 26.5 °C 18.7 °C 1017.5 hPa Calm     62% 0 mm 0 W/m2
21:44 26.4 °C 18.6 °C 1017.5 hPa Calm     62.2% 0 mm 0 W/m2
21:49 26.2 °C 18.6 °C 1017.5 hPa Calm     63% 0 mm 0 W/m2
21:54 26.1 °C 18.5 °C 1017.5 hPa Calm     63% 0 mm 0 W/m2
21:59 25.9 °C 18.6 °C 1017.5 hPa Calm     64% 0 mm 0 W/m2
22:04 25.8 °C 18.7 °C 1017.5 hPa Calm     64.5% 0 mm 0 W/m2
22:09 25.7 °C 18.7 °C 1017.5 hPa Calm     65.3% 0 mm 0 W/m2
22:14 25.5 °C 18.7 °C 1017.5 hPa Calm     66% 0 mm 0 W/m2
22:19 25.4 °C 18.7 °C 1017.5 hPa Calm     66.7% 0 mm 0 W/m2
22:24 25.2 °C 18.7 °C 1017.8 hPa Calm     67% 0 mm 0 W/m2
22:29 25.1 °C 18.6 °C 1017.8 hPa Calm     67% 0 mm 0 W/m2
22:34 25 °C 18.4 °C 1017.8 hPa Calm     67% 0 mm 0 W/m2
22:39 24.9 °C 18.3 °C 1017.8 hPa Calm     67% 0 mm 0 W/m2
22:44 24.8 °C 18.3 °C 1017.8 hPa Calm     67% 0 mm 0 W/m2
22:49 24.7 °C 18.2 °C 1017.8 hPa Calm     67% 0 mm 0 W/m2
22:54 24.6 °C 18.3 °C 1017.8 hPa Calm     67.7% 0 mm 0 W/m2
22:59 24.6 °C 18.3 °C 1017.8 hPa Calm     68% 0 mm 0 W/m2
23:04 24.5 °C 18.2 °C 1017.8 hPa Calm     68% 0 mm 0 W/m2
23:09 24.4 °C 18.1 °C 1017.8 hPa Calm     68% 0 mm 0 W/m2
23:14 24.3 °C 18.1 °C 1017.8 hPa Calm     68.2% 0 mm 0 W/m2
23:19 24.2 °C 18.2 °C 1017.8 hPa Calm     69% 0 mm 0 W/m2
23:24 24.1 °C 18.1 °C 1017.8 hPa Calm     69% 0 mm 0 W/m2
23:29 24 °C 18.2 °C 1017.8 hPa Calm     69.9% 0 mm 0 W/m2
23:34 23.9 °C 18.1 °C 1017.8 hPa Calm     70% 0 mm 0 W/m2
23:39 23.8 °C 18.1 °C 1017.8 hPa Calm     70.6% 0 mm 0 W/m2
23:44 23.7 °C 18.1 °C 1017.8 hPa Calm     71% 0 mm 0 W/m2
23:49 23.5 °C 18.1 °C 1017.8 hPa Calm     71.8% 0 mm 0 W/m2
23:54 23.4 °C 18.1 °C 1017.8 hPa Calm     72% 0 mm 0 W/m2
23:59 23.2 °C 18.1 °C 1017.8 hPa Calm     72.8% 0 mm 0 W/m2
Hartford County Weather
Compliments of Weather Underground - 2 mb